sensor_id;sensor_type;location;lat;lon;timestamp;P1;durP1;ratioP1;P2;durP2;ratioP2
54033;SDS011;39952;40.122;18.294;2022-08-21T00:00:46;12.93;;;5.50;;
54033;SDS011;39952;40.122;18.294;2022-08-21T00:03:55;8.60;;;5.97;;
54033;SDS011;39952;40.122;18.294;2022-08-21T00:07:02;9.30;;;4.57;;
54033;SDS011;39952;40.122;18.294;2022-08-21T00:10:09;7.45;;;4.68;;
54033;SDS011;39952;40.122;18.294;2022-08-21T00:13:16;10.60;;;4.40;;
54033;SDS011;39952;40.122;18.294;2022-08-21T00:16:24;8.95;;;4.93;;
54033;SDS011;39952;40.122;18.294;2022-08-21T00:19:33;9.68;;;4.82;;
54033;SDS011;39952;40.122;18.294;2022-08-21T00:22:40;10.00;;;4.72;;
54033;SDS011;39952;40.122;18.294;2022-08-21T00:25:47;9.20;;;4.47;;
54033;SDS011;39952;40.122;18.294;2022-08-21T00:28:54;8.38;;;4.40;;
54033;SDS011;39952;40.122;18.294;2022-08-21T00:32:00;9.88;;;4.25;;
54033;SDS011;39952;40.122;18.294;2022-08-21T00:35:12;8.77;;;4.68;;
54033;SDS011;39952;40.122;18.294;2022-08-21T00:38:21;10.90;;;4.10;;
54033;SDS011;39952;40.122;18.294;2022-08-21T00:41:28;9.65;;;4.68;;
54033;SDS011;39952;40.122;18.294;2022-08-21T00:44:35;8.95;;;4.50;;
54033;SDS011;39952;40.122;18.294;2022-08-21T00:47:42;9.45;;;4.10;;
54033;SDS011;39952;40.122;18.294;2022-08-21T00:50:51;10.27;;;4.05;;
54033;SDS011;39952;40.122;18.294;2022-08-21T00:54:02;8.52;;;3.90;;
54033;SDS011;39952;40.122;18.294;2022-08-21T00:57:11;8.55;;;4.22;;
54033;SDS011;39952;40.122;18.294;2022-08-21T01:00:23;7.38;;;3.70;;
54033;SDS011;39952;40.122;18.294;2022-08-21T01:03:32;9.65;;;4.28;;
54033;SDS011;39952;40.122;18.294;2022-08-21T01:06:41;7.38;;;4.20;;
54033;SDS011;39952;40.122;18.294;2022-08-21T01:09:48;7.13;;;4.10;;
54033;SDS011;39952;40.122;18.294;2022-08-21T01:12:56;7.82;;;4.00;;
54033;SDS011;39952;40.122;18.294;2022-08-21T01:16:04;9.50;;;4.63;;
54033;SDS011;39952;40.122;18.294;2022-08-21T01:19:15;11.15;;;4.20;;
54033;SDS011;39952;40.122;18.294;2022-08-21T01:22:25;7.30;;;3.95;;
54033;SDS011;39952;40.122;18.294;2022-08-21T01:28:41;8.02;;;3.90;;
54033;SDS011;39952;40.122;18.294;2022-08-21T01:31:51;7.50;;;4.30;;
54033;SDS011;39952;40.122;18.294;2022-08-21T01:34:58;11.13;;;4.10;;
54033;SDS011;39952;40.122;18.294;2022-08-21T01:38:06;6.93;;;3.80;;
54033;SDS011;39952;40.122;18.294;2022-08-21T01:41:13;13.35;;;4.30;;
54033;SDS011;39952;40.122;18.294;2022-08-21T01:44:20;7.50;;;4.40;;
54033;SDS011;39952;40.122;18.294;2022-08-21T01:47:27;9.13;;;4.22;;
54033;SDS011;39952;40.122;18.294;2022-08-21T01:50:34;7.85;;;4.10;;
54033;SDS011;39952;40.122;18.294;2022-08-21T01:53:42;9.02;;;4.20;;
54033;SDS011;39952;40.122;18.294;2022-08-21T01:56:50;7.13;;;3.87;;
54033;SDS011;39952;40.122;18.294;2022-08-21T01:59:58;8.52;;;4.53;;
54033;SDS011;39952;40.122;18.294;2022-08-21T02:03:15;6.72;;;3.92;;
54033;SDS011;39952;40.122;18.294;2022-08-21T02:06:22;7.43;;;4.00;;
54033;SDS011;39952;40.122;18.294;2022-08-21T02:09:30;9.40;;;4.03;;
54033;SDS011;39952;40.122;18.294;2022-08-21T02:12:37;8.80;;;4.35;;
54033;SDS011;39952;40.122;18.294;2022-08-21T02:15:44;7.10;;;4.00;;
54033;SDS011;39952;40.122;18.294;2022-08-21T02:18:51;10.63;;;4.38;;
54033;SDS011;39952;40.122;18.294;2022-08-21T02:21:58;7.72;;;3.95;;
54033;SDS011;39952;40.122;18.294;2022-08-21T02:25:06;9.95;;;4.18;;
54033;SDS011;39952;40.122;18.294;2022-08-21T02:28:14;8.43;;;4.43;;
54033;SDS011;39952;40.122;18.294;2022-08-21T02:31:21;8.55;;;4.00;;
54033;SDS011;39952;40.122;18.294;2022-08-21T02:34:29;7.22;;;3.70;;
54033;SDS011;39952;40.122;18.294;2022-08-21T02:37:42;9.15;;;4.60;;
54033;SDS011;39952;40.122;18.294;2022-08-21T02:40:51;7.57;;;4.10;;
54033;SDS011;39952;40.122;18.294;2022-08-21T02:43:58;9.05;;;3.92;;
54033;SDS011;39952;40.122;18.294;2022-08-21T02:47:06;7.95;;;4.40;;
54033;SDS011;39952;40.122;18.294;2022-08-21T02:50:13;7.78;;;4.00;;
54033;SDS011;39952;40.122;18.294;2022-08-21T02:53:22;7.57;;;4.25;;
54033;SDS011;39952;40.122;18.294;2022-08-21T02:56:31;10.27;;;4.22;;
54033;SDS011;39952;40.122;18.294;2022-08-21T02:59:37;11.73;;;4.25;;
54033;SDS011;39952;40.122;18.294;2022-08-21T03:02:45;6.80;;;4.03;;
54033;SDS011;39952;40.122;18.294;2022-08-21T03:05:51;9.38;;;5.07;;
54033;SDS011;39952;40.122;18.294;2022-08-21T03:08:58;7.97;;;4.60;;
54033;SDS011;39952;40.122;18.294;2022-08-21T03:12:06;9.02;;;4.75;;
54033;SDS011;39952;40.122;18.294;2022-08-21T03:15:14;9.20;;;4.78;;
54033;SDS011;39952;40.122;18.294;2022-08-21T03:18:23;8.48;;;4.80;;
54033;SDS011;39952;40.122;18.294;2022-08-21T03:21:30;10.50;;;4.88;;
54033;SDS011;39952;40.122;18.294;2022-08-21T03:24:37;7.82;;;4.88;;
54033;SDS011;39952;40.122;18.294;2022-08-21T03:27:48;9.75;;;4.43;;
54033;SDS011;39952;40.122;18.294;2022-08-21T03:30:56;7.22;;;4.20;;
54033;SDS011;39952;40.122;18.294;2022-08-21T03:34:02;9.48;;;4.47;;
54033;SDS011;39952;40.122;18.294;2022-08-21T03:37:09;9.10;;;4.78;;
54033;SDS011;39952;40.122;18.294;2022-08-21T03:40:16;7.13;;;4.60;;
54033;SDS011;39952;40.122;18.294;2022-08-21T03:43:26;8.75;;;4.53;;
54033;SDS011;39952;40.122;18.294;2022-08-21T03:46:34;8.90;;;4.95;;
54033;SDS011;39952;40.122;18.294;2022-08-21T03:49:40;10.35;;;5.07;;
54033;SDS011;39952;40.122;18.294;2022-08-21T03:52:47;9.80;;;4.70;;
54033;SDS011;39952;40.122;18.294;2022-08-21T03:55:53;7.15;;;4.57;;
54033;SDS011;39952;40.122;18.294;2022-08-21T03:59:01;8.70;;;4.65;;
54033;SDS011;39952;40.122;18.294;2022-08-21T04:02:09;9.70;;;5.28;;
54033;SDS011;39952;40.122;18.294;2022-08-21T04:05:16;8.45;;;5.10;;
54033;SDS011;39952;40.122;18.294;2022-08-21T04:08:31;9.30;;;4.80;;
54033;SDS011;39952;40.122;18.294;2022-08-21T04:11:38;7.95;;;4.80;;
54033;SDS011;39952;40.122;18.294;2022-08-21T04:14:47;8.88;;;4.68;;
54033;SDS011;39952;40.122;18.294;2022-08-21T04:17:55;10.18;;;4.95;;
54033;SDS011;39952;40.122;18.294;2022-08-21T04:21:03;8.98;;;4.68;;
54033;SDS011;39952;40.122;18.294;2022-08-21T04:24:10;11.15;;;4.72;;
54033;SDS011;39952;40.122;18.294;2022-08-21T04:27:17;8.45;;;4.20;;
54033;SDS011;39952;40.122;18.294;2022-08-21T04:30:25;11.57;;;5.13;;
54033;SDS011;39952;40.122;18.294;2022-08-21T04:33:32;9.07;;;4.53;;
54033;SDS011;39952;40.122;18.294;2022-08-21T04:36:39;8.30;;;4.50;;
54033;SDS011;39952;40.122;18.294;2022-08-21T04:39:46;8.43;;;4.60;;
54033;SDS011;39952;40.122;18.294;2022-08-21T04:42:56;10.32;;;4.38;;
54033;SDS011;39952;40.122;18.294;2022-08-21T04:46:06;7.25;;;4.30;;
54033;SDS011;39952;40.122;18.294;2022-08-21T04:49:13;9.60;;;4.23;;
54033;SDS011;39952;40.122;18.294;2022-08-21T04:52:21;7.50;;;4.43;;
54033;SDS011;39952;40.122;18.294;2022-08-21T04:55:29;7.38;;;4.28;;
54033;SDS011;39952;40.122;18.294;2022-08-21T04:58:36;9.68;;;4.93;;
54033;SDS011;39952;40.122;18.294;2022-08-21T05:01:45;9.13;;;4.30;;
54033;SDS011;39952;40.122;18.294;2022-08-21T05:04:52;7.30;;;4.68;;
54033;SDS011;39952;40.122;18.294;2022-08-21T05:08:01;9.80;;;4.43;;
54033;SDS011;39952;40.122;18.294;2022-08-21T05:11:09;10.05;;;5.18;;
54033;SDS011;39952;40.122;18.294;2022-08-21T05:14:16;8.70;;;4.70;;
54033;SDS011;39952;40.122;18.294;2022-08-21T05:17:24;8.65;;;4.38;;
54033;SDS011;39952;40.122;18.294;2022-08-21T05:20:30;7.47;;;4.05;;
54033;SDS011;39952;40.122;18.294;2022-08-21T05:23:39;9.35;;;4.45;;
54033;SDS011;39952;40.122;18.294;2022-08-21T05:26:45;8.13;;;5.10;;
54033;SDS011;39952;40.122;18.294;2022-08-21T05:29:52;10.15;;;4.22;;
54033;SDS011;39952;40.122;18.294;2022-08-21T05:33:00;9.38;;;5.15;;
54033;SDS011;39952;40.122;18.294;2022-08-21T05:36:09;11.75;;;4.93;;
54033;SDS011;39952;40.122;18.294;2022-08-21T05:39:15;7.32;;;5.15;;
54033;SDS011;39952;40.122;18.294;2022-08-21T05:42:22;8.32;;;4.55;;
54033;SDS011;39952;40.122;18.294;2022-08-21T05:45:29;10.50;;;4.88;;
54033;SDS011;39952;40.122;18.294;2022-08-21T05:48:38;9.73;;;4.80;;
54033;SDS011;39952;40.122;18.294;2022-08-21T05:51:45;8.70;;;5.50;;
54033;SDS011;39952;40.122;18.294;2022-08-21T05:54:51;7.35;;;4.88;;
54033;SDS011;39952;40.122;18.294;2022-08-21T05:57:58;10.23;;;5.05;;
54033;SDS011;39952;40.122;18.294;2022-08-21T06:01:05;9.68;;;5.57;;
54033;SDS011;39952;40.122;18.294;2022-08-21T06:04:14;9.02;;;5.10;;
54033;SDS011;39952;40.122;18.294;2022-08-21T06:07:21;11.27;;;4.78;;
54033;SDS011;39952;40.122;18.294;2022-08-21T06:10:28;8.07;;;4.47;;
54033;SDS011;39952;40.122;18.294;2022-08-21T06:13:35;9.35;;;5.03;;
54033;SDS011;39952;40.122;18.294;2022-08-21T06:16:42;10.52;;;5.03;;
54033;SDS011;39952;40.122;18.294;2022-08-21T06:19:52;9.15;;;5.20;;
54033;SDS011;39952;40.122;18.294;2022-08-21T06:22:59;10.48;;;5.32;;
54033;SDS011;39952;40.122;18.294;2022-08-21T06:26:07;8.00;;;5.00;;
54033;SDS011;39952;40.122;18.294;2022-08-21T06:29:16;13.65;;;5.68;;
54033;SDS011;39952;40.122;18.294;2022-08-21T06:32:24;8.68;;;5.40;;
54033;SDS011;39952;40.122;18.294;2022-08-21T06:35:32;11.27;;;5.38;;
54033;SDS011;39952;40.122;18.294;2022-08-21T06:38:40;7.40;;;5.20;;
54033;SDS011;39952;40.122;18.294;2022-08-21T06:41:46;7.75;;;4.70;;
54033;SDS011;39952;40.122;18.294;2022-08-21T06:44:53;11.75;;;5.50;;
54033;SDS011;39952;40.122;18.294;2022-08-21T06:48:01;11.45;;;5.13;;
54033;SDS011;39952;40.122;18.294;2022-08-21T06:51:09;10.88;;;5.22;;
54033;SDS011;39952;40.122;18.294;2022-08-21T06:54:16;13.30;;;5.10;;
54033;SDS011;39952;40.122;18.294;2022-08-21T06:57:23;14.77;;;5.10;;
54033;SDS011;39952;40.122;18.294;2022-08-21T07:00:30;11.95;;;5.47;;
54033;SDS011;39952;40.122;18.294;2022-08-21T07:03:38;10.27;;;4.90;;
54033;SDS011;39952;40.122;18.294;2022-08-21T07:06:47;10.63;;;5.40;;
54033;SDS011;39952;40.122;18.294;2022-08-21T07:09:54;13.68;;;5.60;;
54033;SDS011;39952;40.122;18.294;2022-08-21T07:13:00;12.80;;;5.18;;
54033;SDS011;39952;40.122;18.294;2022-08-21T07:16:07;14.63;;;6.30;;
54033;SDS011;39952;40.122;18.294;2022-08-21T07:19:13;11.80;;;5.55;;
54033;SDS011;39952;40.122;18.294;2022-08-21T07:22:21;12.43;;;5.80;;
54033;SDS011;39952;40.122;18.294;2022-08-21T07:25:28;14.20;;;5.60;;
54033;SDS011;39952;40.122;18.294;2022-08-21T07:28:35;12.07;;;5.28;;
54033;SDS011;39952;40.122;18.294;2022-08-21T07:31:42;11.93;;;5.43;;
54033;SDS011;39952;40.122;18.294;2022-08-21T07:34:49;10.55;;;5.20;;
54033;SDS011;39952;40.122;18.294;2022-08-21T07:37:57;10.43;;;4.90;;
54033;SDS011;39952;40.122;18.294;2022-08-21T07:41:06;12.05;;;4.93;;
54033;SDS011;39952;40.122;18.294;2022-08-21T07:44:18;14.23;;;5.78;;
54033;SDS011;39952;40.122;18.294;2022-08-21T07:47:25;12.07;;;7.32;;
54033;SDS011;39952;40.122;18.294;2022-08-21T07:50:31;9.68;;;5.63;;
54033;SDS011;39952;40.122;18.294;2022-08-21T07:53:39;9.52;;;5.63;;
54033;SDS011;39952;40.122;18.294;2022-08-21T07:56:46;13.20;;;5.95;;
54033;SDS011;39952;40.122;18.294;2022-08-21T07:59:53;13.02;;;5.65;;
54033;SDS011;39952;40.122;18.294;2022-08-21T08:03:00;10.57;;;4.90;;
54033;SDS011;39952;40.122;18.294;2022-08-21T08:06:07;9.18;;;5.22;;
54033;SDS011;39952;40.122;18.294;2022-08-21T08:09:18;11.60;;;5.25;;
54033;SDS011;39952;40.122;18.294;2022-08-21T08:12:25;11.05;;;5.97;;
54033;SDS011;39952;40.122;18.294;2022-08-21T08:15:34;12.23;;;5.38;;
54033;SDS011;39952;40.122;18.294;2022-08-21T08:18:43;10.85;;;5.20;;
54033;SDS011;39952;40.122;18.294;2022-08-21T08:21:50;11.93;;;5.35;;
54033;SDS011;39952;40.122;18.294;2022-08-21T08:24:59;11.55;;;5.20;;
54033;SDS011;39952;40.122;18.294;2022-08-21T08:28:08;14.05;;;5.40;;
54033;SDS011;39952;40.122;18.294;2022-08-21T08:31:15;9.38;;;5.10;;
54033;SDS011;39952;40.122;18.294;2022-08-21T08:34:23;11.45;;;5.50;;
54033;SDS011;39952;40.122;18.294;2022-08-21T08:37:30;13.88;;;4.90;;
54033;SDS011;39952;40.122;18.294;2022-08-21T08:40:39;11.45;;;4.38;;
54033;SDS011;39952;40.122;18.294;2022-08-21T08:43:51;9.45;;;4.70;;
54033;SDS011;39952;40.122;18.294;2022-08-21T08:47:00;10.07;;;5.30;;
54033;SDS011;39952;40.122;18.294;2022-08-21T08:50:08;10.90;;;5.78;;
54033;SDS011;39952;40.122;18.294;2022-08-21T08:53:19;11.25;;;4.70;;
54033;SDS011;39952;40.122;18.294;2022-08-21T08:56:35;14.02;;;5.40;;
54033;SDS011;39952;40.122;18.294;2022-08-21T08:59:43;11.07;;;5.25;;
54033;SDS011;39952;40.122;18.294;2022-08-21T09:02:52;10.63;;;5.18;;
54033;SDS011;39952;40.122;18.294;2022-08-21T09:06:04;10.35;;;5.35;;
54033;SDS011;39952;40.122;18.294;2022-08-21T09:09:22;9.32;;;4.55;;
54033;SDS011;39952;40.122;18.294;2022-08-21T09:12:50;9.85;;;4.88;;
54033;SDS011;39952;40.122;18.294;2022-08-21T09:16:03;10.57;;;5.80;;
54033;SDS011;39952;40.122;18.294;2022-08-21T09:19:19;14.50;;;5.40;;
54033;SDS011;39952;40.122;18.294;2022-08-21T09:22:38;8.27;;;4.90;;
54033;SDS011;39952;40.122;18.294;2022-08-21T09:25:54;11.43;;;5.05;;
54033;SDS011;39952;40.122;18.294;2022-08-21T09:29:09;11.10;;;5.30;;
54033;SDS011;39952;40.122;18.294;2022-08-21T09:32:18;9.65;;;5.35;;
54033;SDS011;39952;40.122;18.294;2022-08-21T09:35:26;10.00;;;5.93;;
54033;SDS011;39952;40.122;18.294;2022-08-21T09:38:35;11.75;;;5.25;;
54033;SDS011;39952;40.122;18.294;2022-08-21T09:41:42;11.77;;;5.55;;
54033;SDS011;39952;40.122;18.294;2022-08-21T09:45:10;10.70;;;5.43;;
54033;SDS011;39952;40.122;18.294;2022-08-21T09:48:19;10.10;;;5.60;;
54033;SDS011;39952;40.122;18.294;2022-08-21T09:51:28;11.55;;;5.20;;
54033;SDS011;39952;40.122;18.294;2022-08-21T09:54:36;11.18;;;5.15;;
54033;SDS011;39952;40.122;18.294;2022-08-21T09:57:45;12.85;;;5.25;;
54033;SDS011;39952;40.122;18.294;2022-08-21T10:00:58;10.88;;;5.57;;
54033;SDS011;39952;40.122;18.294;2022-08-21T10:04:07;13.88;;;5.78;;
54033;SDS011;39952;40.122;18.294;2022-08-21T10:07:14;11.90;;;5.40;;
54033;SDS011;39952;40.122;18.294;2022-08-21T10:10:23;14.25;;;6.35;;
54033;SDS011;39952;40.122;18.294;2022-08-21T10:13:51;11.85;;;5.30;;
54033;SDS011;39952;40.122;18.294;2022-08-21T10:17:04;10.65;;;5.45;;
54033;SDS011;39952;40.122;18.294;2022-08-21T10:20:19;14.45;;;6.03;;
54033;SDS011;39952;40.122;18.294;2022-08-21T10:23:34;9.35;;;5.80;;
54033;SDS011;39952;40.122;18.294;2022-08-21T10:26:56;13.60;;;5.47;;
54033;SDS011;39952;40.122;18.294;2022-08-21T10:30:12;15.50;;;5.88;;
54033;SDS011;39952;40.122;18.294;2022-08-21T10:33:26;10.55;;;6.10;;
54033;SDS011;39952;40.122;18.294;2022-08-21T10:36:43;14.75;;;5.70;;
54033;SDS011;39952;40.122;18.294;2022-08-21T10:40:13;11.90;;;5.47;;
54033;SDS011;39952;40.122;18.294;2022-08-21T10:43:27;10.95;;;5.57;;
54033;SDS011;39952;40.122;18.294;2022-08-21T10:46:46;11.63;;;4.95;;
54033;SDS011;39952;40.122;18.294;2022-08-21T10:50:01;10.15;;;5.18;;
54033;SDS011;39952;40.122;18.294;2022-08-21T10:56:54;7.53;;;4.90;;
54033;SDS011;39952;40.122;18.294;2022-08-21T11:00:05;11.23;;;4.78;;
54033;SDS011;39952;40.122;18.294;2022-08-21T11:03:16;15.85;;;5.13;;
54033;SDS011;39952;40.122;18.294;2022-08-21T11:06:29;11.65;;;4.97;;
54033;SDS011;39952;40.122;18.294;2022-08-21T11:09:38;12.05;;;4.85;;
54033;SDS011;39952;40.122;18.294;2022-08-21T11:12:48;11.27;;;5.03;;
54033;SDS011;39952;40.122;18.294;2022-08-21T11:16:02;11.05;;;4.85;;
54033;SDS011;39952;40.122;18.294;2022-08-21T11:19:13;9.48;;;4.50;;
54033;SDS011;39952;40.122;18.294;2022-08-21T11:22:31;10.57;;;5.63;;
54033;SDS011;39952;40.122;18.294;2022-08-21T11:25:42;10.98;;;4.55;;
54033;SDS011;39952;40.122;18.294;2022-08-21T11:28:54;11.15;;;4.63;;
54033;SDS011;39952;40.122;18.294;2022-08-21T11:32:15;9.57;;;4.50;;
54033;SDS011;39952;40.122;18.294;2022-08-21T11:35:44;10.18;;;4.93;;
54033;SDS011;39952;40.122;18.294;2022-08-21T11:38:59;8.20;;;4.80;;
54033;SDS011;39952;40.122;18.294;2022-08-21T11:42:14;9.15;;;4.18;;
54033;SDS011;39952;40.122;18.294;2022-08-21T11:45:31;9.48;;;4.35;;
54033;SDS011;39952;40.122;18.294;2022-08-21T11:48:46;11.80;;;4.63;;
54033;SDS011;39952;40.122;18.294;2022-08-21T11:52:07;11.65;;;4.55;;
54033;SDS011;39952;40.122;18.294;2022-08-21T11:55:22;12.60;;;4.72;;
54033;SDS011;39952;40.122;18.294;2022-08-21T11:58:35;8.18;;;4.32;;
54033;SDS011;39952;40.122;18.294;2022-08-21T12:01:45;7.70;;;4.18;;
54033;SDS011;39952;40.122;18.294;2022-08-21T12:04:57;7.65;;;3.70;;
54033;SDS011;39952;40.122;18.294;2022-08-21T12:08:11;10.45;;;4.00;;
54033;SDS011;39952;40.122;18.294;2022-08-21T12:11:24;10.55;;;4.45;;
54033;SDS011;39952;40.122;18.294;2022-08-21T12:14:38;8.55;;;4.13;;
54033;SDS011;39952;40.122;18.294;2022-08-21T12:17:52;11.07;;;5.13;;
54033;SDS011;39952;40.122;18.294;2022-08-21T12:21:02;9.70;;;4.32;;
54033;SDS011;39952;40.122;18.294;2022-08-21T12:24:31;8.40;;;4.47;;
54033;SDS011;39952;40.122;18.294;2022-08-21T12:27:44;10.63;;;4.80;;
54033;SDS011;39952;40.122;18.294;2022-08-21T12:30:52;9.02;;;4.47;;
54033;SDS011;39952;40.122;18.294;2022-08-21T12:34:01;8.90;;;4.25;;
54033;SDS011;39952;40.122;18.294;2022-08-21T12:37:17;11.10;;;4.13;;
54033;SDS011;39952;40.122;18.294;2022-08-21T12:40:28;10.90;;;4.20;;
54033;SDS011;39952;40.122;18.294;2022-08-21T12:43:40;8.02;;;4.28;;
54033;SDS011;39952;40.122;18.294;2022-08-21T12:46:50;9.27;;;4.80;;
54033;SDS011;39952;40.122;18.294;2022-08-21T12:50:02;9.93;;;4.32;;
54033;SDS011;39952;40.122;18.294;2022-08-21T12:53:14;8.18;;;4.65;;
54033;SDS011;39952;40.122;18.294;2022-08-21T12:56:36;9.90;;;4.30;;
54033;SDS011;39952;40.122;18.294;2022-08-21T12:59:46;10.57;;;4.30;;
54033;SDS011;39952;40.122;18.294;2022-08-21T13:02:58;7.10;;;4.22;;
54033;SDS011;39952;40.122;18.294;2022-08-21T13:06:07;8.13;;;4.78;;
54033;SDS011;39952;40.122;18.294;2022-08-21T13:09:23;10.68;;;4.20;;
54033;SDS011;39952;40.122;18.294;2022-08-21T13:12:31;11.30;;;4.10;;
54033;SDS011;39952;40.122;18.294;2022-08-21T13:15:43;9.45;;;4.38;;
54033;SDS011;39952;40.122;18.294;2022-08-21T13:22:01;8.07;;;3.88;;
54033;SDS011;39952;40.122;18.294;2022-08-21T13:25:09;8.98;;;4.15;;
54033;SDS011;39952;40.122;18.294;2022-08-21T13:28:16;7.57;;;4.25;;
54033;SDS011;39952;40.122;18.294;2022-08-21T13:31:26;7.30;;;4.03;;
54033;SDS011;39952;40.122;18.294;2022-08-21T13:34:36;8.10;;;4.28;;
54033;SDS011;39952;40.122;18.294;2022-08-21T13:37:44;9.98;;;4.60;;
54033;SDS011;39952;40.122;18.294;2022-08-21T13:40:54;11.63;;;4.75;;
54033;SDS011;39952;40.122;18.294;2022-08-21T13:44:03;10.43;;;5.57;;
54033;SDS011;39952;40.122;18.294;2022-08-21T13:47:13;8.85;;;4.50;;
54033;SDS011;39952;40.122;18.294;2022-08-21T13:50:22;7.45;;;4.28;;
54033;SDS011;39952;40.122;18.294;2022-08-21T13:53:30;9.43;;;4.03;;
54033;SDS011;39952;40.122;18.294;2022-08-21T13:56:41;9.90;;;4.03;;
54033;SDS011;39952;40.122;18.294;2022-08-21T13:59:50;6.82;;;4.10;;
54033;SDS011;39952;40.122;18.294;2022-08-21T14:03:02;7.55;;;3.72;;
54033;SDS011;39952;40.122;18.294;2022-08-21T14:06:11;10.82;;;4.03;;
54033;SDS011;39952;40.122;18.294;2022-08-21T14:09:22;10.40;;;4.05;;
54033;SDS011;39952;40.122;18.294;2022-08-21T14:12:36;8.45;;;4.78;;
54033;SDS011;39952;40.122;18.294;2022-08-21T14:15:54;8.13;;;4.05;;
54033;SDS011;39952;40.122;18.294;2022-08-21T14:19:15;6.82;;;4.00;;
54033;SDS011;39952;40.122;18.294;2022-08-21T14:22:30;7.32;;;3.78;;
54033;SDS011;39952;40.122;18.294;2022-08-21T14:25:42;8.48;;;3.80;;
54033;SDS011;39952;40.122;18.294;2022-08-21T14:28:50;9.68;;;4.40;;
54033;SDS011;39952;40.122;18.294;2022-08-21T14:31:58;8.00;;;3.90;;
54033;SDS011;39952;40.122;18.294;2022-08-21T14:35:08;9.45;;;4.03;;
54033;SDS011;39952;40.122;18.294;2022-08-21T14:38:16;7.70;;;3.78;;
54033;SDS011;39952;40.122;18.294;2022-08-21T14:41:25;10.23;;;5.22;;
54033;SDS011;39952;40.122;18.294;2022-08-21T14:44:34;7.30;;;4.75;;
54033;SDS011;39952;40.122;18.294;2022-08-21T14:47:41;9.57;;;4.38;;
54033;SDS011;39952;40.122;18.294;2022-08-21T14:50:50;9.07;;;3.75;;
54033;SDS011;39952;40.122;18.294;2022-08-21T14:53:58;10.50;;;4.57;;
54033;SDS011;39952;40.122;18.294;2022-08-21T14:57:06;7.03;;;4.03;;
54033;SDS011;39952;40.122;18.294;2022-08-21T15:00:17;8.48;;;4.43;;
54033;SDS011;39952;40.122;18.294;2022-08-21T15:03:27;10.65;;;4.35;;
54033;SDS011;39952;40.122;18.294;2022-08-21T15:06:36;8.73;;;3.95;;
54033;SDS011;39952;40.122;18.294;2022-08-21T15:09:43;8.65;;;4.38;;
54033;SDS011;39952;40.122;18.294;2022-08-21T15:12:49;9.43;;;4.32;;
54033;SDS011;39952;40.122;18.294;2022-08-21T15:15:56;9.88;;;4.18;;
54033;SDS011;39952;40.122;18.294;2022-08-21T15:19:03;7.25;;;3.80;;
54033;SDS011;39952;40.122;18.294;2022-08-21T15:22:11;7.40;;;3.60;;
54033;SDS011;39952;40.122;18.294;2022-08-21T15:25:19;7.38;;;3.53;;
54033;SDS011;39952;40.122;18.294;2022-08-21T15:28:26;7.85;;;3.60;;
54033;SDS011;39952;40.122;18.294;2022-08-21T15:31:33;7.20;;;3.58;;
54033;SDS011;39952;40.122;18.294;2022-08-21T15:34:40;6.47;;;3.45;;
54033;SDS011;39952;40.122;18.294;2022-08-21T15:37:48;7.60;;;4.00;;
54033;SDS011;39952;40.122;18.294;2022-08-21T15:40:55;6.97;;;3.78;;
54033;SDS011;39952;40.122;18.294;2022-08-21T15:44:02;9.00;;;4.07;;
54033;SDS011;39952;40.122;18.294;2022-08-21T15:47:09;10.00;;;4.40;;
54033;SDS011;39952;40.122;18.294;2022-08-21T15:50:19;6.82;;;3.65;;
54033;SDS011;39952;40.122;18.294;2022-08-21T15:53:28;7.93;;;4.28;;
54033;SDS011;39952;40.122;18.294;2022-08-21T15:56:37;7.57;;;4.20;;
54033;SDS011;39952;40.122;18.294;2022-08-21T15:59:47;7.63;;;4.28;;
54033;SDS011;39952;40.122;18.294;2022-08-21T16:02:57;8.63;;;4.45;;
54033;SDS011;39952;40.122;18.294;2022-08-21T16:06:05;8.90;;;4.07;;
54033;SDS011;39952;40.122;18.294;2022-08-21T16:09:13;8.25;;;4.65;;
54033;SDS011;39952;40.122;18.294;2022-08-21T16:12:21;7.82;;;4.38;;
54033;SDS011;39952;40.122;18.294;2022-08-21T16:15:31;8.05;;;4.65;;
54033;SDS011;39952;40.122;18.294;2022-08-21T16:18:38;11.15;;;4.93;;
54033;SDS011;39952;40.122;18.294;2022-08-21T16:21:46;8.30;;;4.40;;
54033;SDS011;39952;40.122;18.294;2022-08-21T16:24:54;11.15;;;5.57;;
54033;SDS011;39952;40.122;18.294;2022-08-21T16:28:01;10.30;;;4.80;;
54033;SDS011;39952;40.122;18.294;2022-08-21T16:31:08;8.65;;;4.93;;
54033;SDS011;39952;40.122;18.294;2022-08-21T16:34:16;9.90;;;4.80;;
54033;SDS011;39952;40.122;18.294;2022-08-21T16:37:24;10.52;;;5.20;;
54033;SDS011;39952;40.122;18.294;2022-08-21T16:40:32;9.32;;;5.55;;
54033;SDS011;39952;40.122;18.294;2022-08-21T16:43:41;10.25;;;4.53;;
54033;SDS011;39952;40.122;18.294;2022-08-21T16:46:48;10.60;;;4.60;;
54033;SDS011;39952;40.122;18.294;2022-08-21T16:49:55;8.32;;;4.63;;
54033;SDS011;39952;40.122;18.294;2022-08-21T16:53:02;11.82;;;5.13;;
54033;SDS011;39952;40.122;18.294;2022-08-21T16:56:11;11.02;;;5.40;;
54033;SDS011;39952;40.122;18.294;2022-08-21T16:59:19;8.95;;;4.50;;
54033;SDS011;39952;40.122;18.294;2022-08-21T17:02:28;8.25;;;4.40;;
54033;SDS011;39952;40.122;18.294;2022-08-21T17:05:37;10.30;;;5.10;;
54033;SDS011;39952;40.122;18.294;2022-08-21T17:08:43;12.93;;;5.00;;
54033;SDS011;39952;40.122;18.294;2022-08-21T17:11:51;9.50;;;5.07;;
54033;SDS011;39952;40.122;18.294;2022-08-21T17:15:00;9.77;;;4.73;;
54033;SDS011;39952;40.122;18.294;2022-08-21T17:18:13;9.38;;;5.00;;
54033;SDS011;39952;40.122;18.294;2022-08-21T17:21:23;10.98;;;4.97;;
54033;SDS011;39952;40.122;18.294;2022-08-21T17:24:30;10.55;;;5.13;;
54033;SDS011;39952;40.122;18.294;2022-08-21T17:27:39;13.43;;;5.13;;
54033;SDS011;39952;40.122;18.294;2022-08-21T17:30:47;13.65;;;5.72;;
54033;SDS011;39952;40.122;18.294;2022-08-21T17:33:55;12.23;;;5.40;;
54033;SDS011;39952;40.122;18.294;2022-08-21T17:37:02;14.10;;;5.95;;
54033;SDS011;39952;40.122;18.294;2022-08-21T17:40:10;9.93;;;5.70;;
54033;SDS011;39952;40.122;18.294;2022-08-21T17:43:22;9.77;;;5.43;;
54033;SDS011;39952;40.122;18.294;2022-08-21T17:49:37;11.80;;;5.75;;
54033;SDS011;39952;40.122;18.294;2022-08-21T17:52:44;8.82;;;5.40;;
54033;SDS011;39952;40.122;18.294;2022-08-21T17:55:51;14.55;;;5.30;;
54033;SDS011;39952;40.122;18.294;2022-08-21T17:58:59;12.32;;;5.13;;
54033;SDS011;39952;40.122;18.294;2022-08-21T18:02:07;9.40;;;5.10;;
54033;SDS011;39952;40.122;18.294;2022-08-21T18:05:14;9.98;;;5.07;;
54033;SDS011;39952;40.122;18.294;2022-08-21T18:08:21;10.18;;;4.60;;
54033;SDS011;39952;40.122;18.294;2022-08-21T18:11:28;10.93;;;4.88;;
54033;SDS011;39952;40.122;18.294;2022-08-21T18:14:37;8.07;;;4.75;;
54033;SDS011;39952;40.122;18.294;2022-08-21T18:17:47;9.63;;;5.00;;
54033;SDS011;39952;40.122;18.294;2022-08-21T18:20:55;9.00;;;4.95;;
54033;SDS011;39952;40.122;18.294;2022-08-21T18:24:03;10.50;;;4.60;;
54033;SDS011;39952;40.122;18.294;2022-08-21T18:27:09;12.20;;;5.53;;
54033;SDS011;39952;40.122;18.294;2022-08-21T18:30:21;18.05;;;5.45;;
54033;SDS011;39952;40.122;18.294;2022-08-21T18:33:29;10.63;;;4.35;;
54033;SDS011;39952;40.122;18.294;2022-08-21T18:36:36;10.30;;;4.38;;
54033;SDS011;39952;40.122;18.294;2022-08-21T18:39:43;8.70;;;4.72;;
54033;SDS011;39952;40.122;18.294;2022-08-21T18:42:50;9.52;;;4.85;;
54033;SDS011;39952;40.122;18.294;2022-08-21T18:45:59;12.80;;;5.20;;
54033;SDS011;39952;40.122;18.294;2022-08-21T18:49:06;10.63;;;6.30;;